createdAt,value
2022-12-27T00:01:29.512Z,98885.00
2022-12-27T00:04:04.615Z,98901.00
2022-12-27T00:06:39.748Z,98910.00
2022-12-27T00:09:14.660Z,98914.00
2022-12-27T00:11:51.475Z,98927.00
2022-12-27T00:14:29.981Z,98913.00
2022-12-27T00:17:04.891Z,98918.00
2022-12-27T00:19:39.886Z,98932.00
2022-12-27T00:22:16.393Z,98930.00
2022-12-27T00:24:51.346Z,98934.00
2022-12-27T00:27:26.281Z,98944.00
2022-12-27T00:30:01.156Z,98944.00
2022-12-27T00:32:36.036Z,98945.00
2022-12-27T00:35:10.922Z,98943.00
2022-12-27T00:37:45.791Z,98942.00
2022-12-27T00:40:20.693Z,98947.00
2022-12-27T00:42:55.586Z,98951.00
2022-12-27T00:45:30.544Z,98963.00
2022-12-27T00:48:05.771Z,98958.00
2022-12-27T00:50:42.616Z,98964.00
2022-12-27T00:53:17.528Z,98961.00
2022-12-27T00:55:52.459Z,98962.00
2022-12-27T00:58:28.192Z,98978.00
2022-12-27T01:01:13.841Z,98981.00
2022-12-27T01:03:49.014Z,98990.00
2022-12-27T01:06:28.946Z,98987.00
2022-12-27T01:09:05.126Z,99000.00
2022-12-27T01:11:41.689Z,98997.00
2022-12-27T01:14:16.624Z,99001.00
2022-12-27T01:16:51.537Z,99000.00
2022-12-27T01:19:26.456Z,99011.00
2022-12-27T01:22:01.347Z,99021.00
2022-12-27T01:24:36.336Z,99024.00
2022-12-27T01:27:11.222Z,99033.00
2022-12-27T01:29:46.098Z,99043.00
2022-12-27T01:32:21.264Z,99029.00
2022-12-27T01:34:56.195Z,99052.00
2022-12-27T01:37:31.276Z,99058.00
2022-12-27T01:40:07.327Z,99067.00
2022-12-27T01:42:54.892Z,99066.00
2022-12-27T01:45:35.182Z,99070.00
2022-12-27T01:48:18.585Z,99069.00
2022-12-27T01:51:02.326Z,99077.00
2022-12-27T01:53:42.301Z,99075.00
2022-12-27T01:56:27.390Z,99066.00
2022-12-27T01:59:09.274Z,99088.00
2022-12-27T02:01:46.999Z,99074.00
2022-12-27T02:04:26.706Z,99077.00
2022-12-27T02:07:02.128Z,99078.00
2022-12-27T02:09:46.906Z,99085.00
2022-12-27T02:12:22.647Z,99084.00
2022-12-27T02:14:59.036Z,99088.00
2022-12-27T02:17:34.782Z,99087.00
2022-12-27T02:20:22.899Z,99091.00
2022-12-27T02:23:51.128Z,99100.00
2022-12-27T02:26:50.592Z,99108.00
2022-12-27T02:29:59.249Z,99105.00
2022-12-27T02:32:54.756Z,99117.00
2022-12-27T02:35:39.840Z,99120.00
2022-12-27T02:38:28.513Z,99123.00
2022-12-27T02:41:25.457Z,99114.00
2022-12-27T02:44:19.230Z,99109.00
2022-12-27T02:47:12.944Z,99116.00
2022-12-27T02:50:06.197Z,99105.00
2022-12-27T02:53:24.048Z,99111.00
2022-12-27T02:57:08.547Z,99115.00
2022-12-27T03:00:25.698Z,99118.00
2022-12-27T03:03:24.046Z,99111.00
2022-12-27T03:06:37.400Z,99118.00
2022-12-27T03:10:02.763Z,99119.00
2022-12-27T03:13:33.204Z,99119.00
2022-12-27T03:16:11.828Z,99115.00
2022-12-27T03:18:58.453Z,99122.00
2022-12-27T03:22:02.576Z,99123.00
2022-12-27T03:24:58.535Z,99125.00
2022-12-27T03:27:36.511Z,99130.00
2022-12-27T03:30:31.216Z,99129.00
2022-12-27T03:33:13.196Z,99136.00
2022-12-27T03:36:33.963Z,99138.00
2022-12-27T03:39:33.422Z,99140.00
2022-12-27T03:42:36.792Z,99133.00
2022-12-27T03:45:11.900Z,99149.00
2022-12-27T03:47:55.628Z,99146.00
2022-12-27T03:50:50.187Z,99145.00
2022-12-27T03:53:36.104Z,99147.00
2022-12-27T03:56:11.440Z,99147.00
2022-12-27T03:58:46.363Z,99150.00
2022-12-27T04:01:21.370Z,99150.00
2022-12-27T04:03:56.347Z,99150.00
2022-12-27T04:06:31.174Z,99149.00
2022-12-27T04:09:24.782Z,99152.00
2022-12-27T04:12:18.464Z,99147.00
2022-12-27T04:15:11.753Z,99161.00
2022-12-27T04:18:05.310Z,99152.00
2022-12-27T04:20:58.642Z,99159.00
2022-12-27T04:23:51.833Z,99147.00
2022-12-27T04:26:45.493Z,99151.00
2022-12-27T04:29:38.746Z,99155.00
2022-12-27T04:32:32.165Z,99150.00
2022-12-27T04:35:07.282Z,99152.00
2022-12-27T04:37:42.207Z,99140.00
2022-12-27T04:40:35.744Z,99136.00
2022-12-27T04:43:31.373Z,99143.00
2022-12-27T04:46:33.227Z,99147.00
2022-12-27T04:49:43.773Z,99140.00
2022-12-27T04:52:40.608Z,99143.00
2022-12-27T04:55:28.273Z,99147.00
2022-12-27T04:58:03.196Z,99138.00
2022-12-27T05:00:56.481Z,99143.00
2022-12-27T05:03:31.472Z,99149.00
2022-12-27T05:06:07.066Z,99151.00
2022-12-27T05:09:00.836Z,99148.00
2022-12-27T05:11:54.049Z,99149.00
2022-12-27T05:14:28.995Z,99158.00
2022-12-27T05:17:03.897Z,99162.00
2022-12-27T05:19:38.805Z,99157.00
2022-12-27T05:22:31.996Z,99162.00
2022-12-27T05:25:25.570Z,99168.00
2022-12-27T05:28:04.929Z,99176.00
2022-12-27T05:30:43.407Z,99173.00
2022-12-27T05:33:18.575Z,99179.00
2022-12-27T05:35:53.494Z,99171.00
2022-12-27T05:38:28.429Z,99177.00
2022-12-27T05:41:04.156Z,99170.00
2022-12-27T05:43:39.097Z,99180.00
2022-12-27T05:46:18.316Z,99181.00
2022-12-27T05:48:53.205Z,99180.00
2022-12-27T05:51:28.110Z,99188.00
2022-12-27T05:54:02.995Z,99188.00
2022-12-27T05:56:37.839Z,99200.00
2022-12-27T05:59:12.709Z,99204.00
2022-12-27T06:01:47.763Z,99206.00
2022-12-27T06:04:22.730Z,99202.00
2022-12-27T06:06:59.200Z,99202.00
2022-12-27T06:09:35.636Z,99206.00
2022-12-27T06:12:10.566Z,99199.00
2022-12-27T06:14:45.422Z,99193.00
2022-12-27T06:17:20.578Z,99193.00
2022-12-27T06:19:57.436Z,99194.00
2022-12-27T06:22:32.365Z,99195.00
2022-12-27T06:25:12.385Z,99195.00
2022-12-27T06:27:49.110Z,99200.00
2022-12-27T06:30:23.953Z,99198.00
2022-12-27T06:32:58.793Z,99205.00
2022-12-27T06:35:33.949Z,99201.00
2022-12-27T06:38:08.772Z,99211.00
2022-12-27T06:40:43.763Z,99209.00
2022-12-27T06:43:18.631Z,99210.00
2022-12-27T06:45:59.317Z,99212.00
2022-12-27T06:48:34.251Z,99215.00
2022-12-27T06:51:11.875Z,99215.00
2022-12-27T06:53:48.387Z,99212.00
2022-12-27T06:56:23.417Z,99213.00
2022-12-27T06:58:58.309Z,99213.00
2022-12-27T07:01:33.243Z,99227.00
2022-12-27T07:04:09.308Z,99226.00
2022-12-27T07:06:44.160Z,99223.00
2022-12-27T07:09:19.281Z,99227.00
2022-12-27T07:11:54.151Z,99236.00
2022-12-27T07:14:29.093Z,99242.00
2022-12-27T07:17:03.972Z,99242.00
2022-12-27T07:19:38.849Z,99241.00
2022-12-27T07:22:13.722Z,99239.00
2022-12-27T07:24:48.558Z,99238.00
2022-12-27T07:27:23.672Z,99241.00
2022-12-27T07:29:58.879Z,99246.00
2022-12-27T07:32:33.754Z,99238.00
2022-12-27T07:35:09.011Z,99238.00
2022-12-27T07:37:44.931Z,99247.00
2022-12-27T07:40:19.760Z,99248.00
2022-12-27T07:42:54.596Z,99247.00
2022-12-27T07:45:29.450Z,99243.00
2022-12-27T07:48:04.774Z,99251.00
2022-12-27T07:50:39.642Z,99246.00
2022-12-27T07:53:14.493Z,99251.00
2022-12-27T07:55:51.044Z,99248.00
2022-12-27T07:58:26.238Z,99245.00
2022-12-27T08:01:02.562Z,99241.00
2022-12-27T08:03:38.913Z,99240.00
2022-12-27T08:06:32.526Z,99249.00
2022-12-27T08:09:07.668Z,99246.00
2022-12-27T08:11:42.524Z,99243.00
2022-12-27T08:14:17.371Z,99236.00
2022-12-27T08:16:52.244Z,99238.00
2022-12-27T08:19:27.133Z,99243.00
2022-12-27T08:22:02.080Z,99241.00
2022-12-27T08:24:38.419Z,99248.00
2022-12-27T08:27:13.402Z,99255.00
2022-12-27T08:29:48.611Z,99252.00
2022-12-27T08:32:23.486Z,99249.00
2022-12-27T08:35:17.940Z,99242.00
2022-12-27T08:37:53.147Z,99245.00
2022-12-27T08:40:28.170Z,99259.00
2022-12-27T08:43:03.036Z,99246.00
2022-12-27T08:45:39.436Z,99241.00
2022-12-27T08:48:14.371Z,99241.00
2022-12-27T08:50:49.249Z,99255.00
2022-12-27T08:53:24.263Z,99256.00
2022-12-27T08:56:00.123Z,99256.00
2022-12-27T08:58:34.968Z,99250.00
2022-12-27T09:01:11.004Z,99264.00
2022-12-27T09:03:46.114Z,99269.00
2022-12-27T09:06:23.969Z,99260.00
2022-12-27T09:08:59.701Z,99263.00
2022-12-27T09:11:35.093Z,99273.00
2022-12-27T09:14:10.615Z,99270.00
2022-12-27T09:16:45.518Z,99267.00
2022-12-27T09:19:20.410Z,99267.00
2022-12-27T09:21:55.285Z,99279.00
2022-12-27T09:24:30.542Z,99267.00
2022-12-27T09:27:05.639Z,99274.00
2022-12-27T09:29:44.558Z,99281.00
2022-12-27T09:32:27.361Z,99285.00
2022-12-27T09:35:03.473Z,99279.00
2022-12-27T09:37:38.363Z,99272.00
2022-12-27T09:40:18.128Z,99274.00
2022-12-27T09:43:20.745Z,99284.00
2022-12-27T09:45:59.864Z,99283.00
2022-12-27T09:48:39.496Z,99285.00
2022-12-27T09:51:33.062Z,99292.00
2022-12-27T09:54:15.237Z,99282.00
2022-12-27T09:57:19.010Z,99284.00
2022-12-27T09:59:50.145Z,99274.00
2022-12-27T10:02:28.389Z,99273.00
2022-12-27T10:05:21.632Z,99274.00
2022-12-27T10:08:28.637Z,99272.00
2022-12-27T10:11:39.888Z,99270.00
2022-12-27T10:14:50.534Z,99280.00
2022-12-27T10:18:14.751Z,99280.00
2022-12-27T10:21:23.813Z,99280.00
2022-12-27T10:24:06.530Z,99263.00
2022-12-27T10:26:41.360Z,99270.00
2022-12-27T10:29:26.736Z,99265.00
2022-12-27T10:32:01.603Z,99269.00
2022-12-27T10:34:36.468Z,99263.00
2022-12-27T10:37:15.980Z,99274.00
2022-12-27T10:39:50.918Z,99255.00
2022-12-27T10:42:42.976Z,99261.00
2022-12-27T10:45:36.924Z,99264.00
2022-12-27T10:48:47.429Z,99263.00
2022-12-27T10:51:26.678Z,99263.00
2022-12-27T10:54:04.651Z,99268.00
2022-12-27T10:56:42.352Z,99262.00
2022-12-27T10:59:25.825Z,99262.00
2022-12-27T11:02:00.881Z,99250.00
2022-12-27T11:04:35.844Z,99254.00
2022-12-27T11:07:18.704Z,99255.00
2022-12-27T11:10:08.383Z,99253.00
2022-12-27T11:13:02.933Z,99249.00
2022-12-27T11:15:43.257Z,99246.00
2022-12-27T11:18:20.360Z,99248.00
2022-12-27T11:20:58.136Z,99247.00
2022-12-27T11:23:43.456Z,99246.00
2022-12-27T11:26:53.905Z,99249.00
2022-12-27T11:29:32.219Z,99249.00
2022-12-27T11:32:08.742Z,99253.00
2022-12-27T11:34:48.930Z,99240.00
2022-12-27T11:37:26.583Z,99248.00
2022-12-27T11:40:21.292Z,99243.00
2022-12-27T11:43:12.605Z,99241.00
2022-12-27T11:45:50.874Z,99238.00
2022-12-27T11:48:32.863Z,99235.00
2022-12-27T11:51:45.791Z,99233.00
2022-12-27T11:54:53.000Z,99222.00
2022-12-27T11:57:53.021Z,99226.00
2022-12-27T12:00:33.737Z,99233.00
2022-12-27T12:03:58.874Z,99234.00
2022-12-27T12:07:03.618Z,99227.00
2022-12-27T12:10:11.571Z,99227.00
2022-12-27T12:13:27.833Z,99229.00
2022-12-27T12:16:23.954Z,99229.00
2022-12-27T12:19:21.898Z,99246.00
2022-12-27T12:22:42.520Z,99238.00
2022-12-27T12:25:49.669Z,99232.00
2022-12-27T12:29:20.855Z,99230.00
2022-12-27T12:32:37.187Z,99234.00
2022-12-27T12:35:24.864Z,99221.00
2022-12-27T12:38:37.784Z,99222.00
2022-12-27T12:42:00.860Z,99221.00
2022-12-27T12:44:54.795Z,99224.00
2022-12-27T12:47:56.858Z,99230.00
2022-12-27T12:50:55.839Z,99229.00
2022-12-27T12:53:54.611Z,99224.00
2022-12-27T12:57:07.132Z,99234.00
2022-12-27T13:00:01.958Z,99226.00
2022-12-27T13:03:04.710Z,99223.00
2022-12-27T13:06:03.588Z,99229.00
2022-12-27T13:09:17.762Z,99220.00
2022-12-27T13:12:11.748Z,99221.00
2022-12-27T13:15:14.360Z,99213.00
2022-12-27T13:18:31.717Z,99215.00
2022-12-27T13:21:19.505Z,99214.00
2022-12-27T13:24:29.796Z,99207.00
2022-12-27T13:28:00.942Z,99212.00
2022-12-27T13:31:30.482Z,99199.00
2022-12-27T13:34:47.780Z,99213.00
2022-12-27T13:38:05.030Z,99202.00
2022-12-27T13:41:14.874Z,99201.00
2022-12-27T13:44:53.768Z,99196.00
2022-12-27T13:47:50.135Z,99187.00
2022-12-27T13:50:41.191Z,99195.00
2022-12-27T13:53:59.768Z,99188.00
2022-12-27T13:57:28.744Z,99189.00
2022-12-27T14:00:23.520Z,99186.00
2022-12-27T14:03:41.609Z,99181.00
2022-12-27T14:07:09.451Z,99184.00
2022-12-27T14:10:05.860Z,99182.00
2022-12-27T14:12:56.635Z,99180.00
2022-12-27T14:15:56.058Z,99181.00
2022-12-27T14:19:02.921Z,99178.00
2022-12-27T14:22:15.521Z,99177.00
2022-12-27T14:25:41.519Z,99181.00
2022-12-27T14:29:08.708Z,99186.00
2022-12-27T14:32:07.679Z,99177.00
2022-12-27T14:35:25.933Z,99188.00
2022-12-27T14:38:52.041Z,99196.00
2022-12-27T14:42:00.102Z,99192.00
2022-12-27T14:45:18.069Z,99197.00
2022-12-27T14:48:24.811Z,99195.00
2022-12-27T14:52:03.655Z,99199.00
2022-12-27T14:55:23.625Z,99197.00
2022-12-27T14:58:39.932Z,99202.00
2022-12-27T15:01:56.000Z,99194.00
2022-12-27T15:05:01.716Z,99196.00
2022-12-27T15:08:18.931Z,99192.00
2022-12-27T15:11:34.340Z,99193.00
2022-12-27T15:14:26.142Z,99183.00
2022-12-27T15:17:31.167Z,99193.00
2022-12-27T15:20:32.612Z,99196.00
2022-12-27T15:23:30.149Z,99187.00
2022-12-27T15:26:25.419Z,99179.00
2022-12-27T15:29:27.409Z,99177.00
2022-12-27T15:32:26.542Z,99173.00
2022-12-27T15:35:25.230Z,99166.00
2022-12-27T15:38:12.193Z,99164.00
2022-12-27T15:41:08.936Z,99165.00
2022-12-27T15:44:31.019Z,99156.00
2022-12-27T15:47:20.539Z,99163.00
2022-12-27T15:50:32.126Z,99161.00
2022-12-27T15:53:28.366Z,99160.00
2022-12-27T15:56:43.172Z,99157.00
2022-12-27T15:59:36.627Z,99157.00
2022-12-27T16:02:17.791Z,99156.00
2022-12-27T16:05:00.626Z,99164.00
2022-12-27T16:07:47.222Z,99166.00
2022-12-27T16:10:35.538Z,99163.00
2022-12-27T16:13:10.561Z,99165.00
2022-12-27T16:15:47.729Z,99163.00
2022-12-27T16:18:22.675Z,99157.00
2022-12-27T16:21:25.256Z,99158.00
2022-12-27T16:24:10.608Z,99161.00
2022-12-27T16:27:00.857Z,99157.00
2022-12-27T16:29:44.076Z,99153.00
2022-12-27T16:32:25.800Z,99137.00
2022-12-27T16:35:16.196Z,99152.00
2022-12-27T16:37:54.548Z,99152.00
2022-12-27T16:40:47.581Z,99156.00
2022-12-27T16:43:51.661Z,99157.00
2022-12-27T16:46:57.709Z,99159.00
2022-12-27T16:50:00.062Z,99160.00
2022-12-27T16:53:05.367Z,99162.00
2022-12-27T16:56:23.002Z,99163.00
2022-12-27T16:58:58.114Z,99166.00
2022-12-27T17:01:36.008Z,99155.00
2022-12-27T17:04:49.533Z,99158.00
2022-12-27T17:07:49.876Z,99154.00
2022-12-27T17:10:27.775Z,99151.00
2022-12-27T17:13:18.706Z,99143.00
2022-12-27T17:16:11.865Z,99143.00
2022-12-27T17:18:56.063Z,99142.00
2022-12-27T17:21:40.700Z,99137.00
2022-12-27T17:24:21.187Z,99143.00
2022-12-27T17:27:09.722Z,99130.00
2022-12-27T17:30:06.379Z,99129.00
2022-12-27T17:33:23.612Z,99125.00
2022-12-27T17:36:14.555Z,99123.00
2022-12-27T17:39:06.778Z,99119.00
2022-12-27T17:42:29.817Z,99112.00
2022-12-27T17:45:46.928Z,99112.00
2022-12-27T17:48:33.584Z,99107.00
2022-12-27T17:51:19.844Z,99099.00
2022-12-27T17:54:14.630Z,99094.00
2022-12-27T17:57:18.636Z,99108.00
2022-12-27T17:59:53.781Z,99103.00
2022-12-27T18:02:32.047Z,99111.00
2022-12-27T18:05:14.182Z,99103.00
2022-12-27T18:08:01.040Z,99101.00
2022-12-27T18:10:36.735Z,99108.00
2022-12-27T18:13:19.889Z,99102.00
2022-12-27T18:15:55.440Z,99096.00
2022-12-27T18:18:33.699Z,99090.00
2022-12-27T18:21:25.888Z,99096.00
2022-12-27T18:24:00.787Z,99096.00
2022-12-27T18:26:41.909Z,99101.00
2022-12-27T18:29:16.839Z,99089.00
2022-12-27T18:31:55.717Z,99091.00
2022-12-27T18:34:56.437Z,99082.00
2022-12-27T18:37:36.200Z,99082.00
2022-12-27T18:40:23.097Z,99078.00
2022-12-27T18:42:58.349Z,99072.00
2022-12-27T18:45:34.418Z,99078.00
2022-12-27T18:48:12.386Z,99077.00
2022-12-27T18:50:54.293Z,99077.00
2022-12-27T18:53:35.984Z,99077.00
2022-12-27T18:56:13.786Z,99065.00
2022-12-27T18:59:21.502Z,99069.00
2022-12-27T19:02:03.357Z,99062.00
2022-12-27T19:04:38.959Z,99052.00
2022-12-27T19:07:14.942Z,99043.00
2022-12-27T19:09:54.086Z,99056.00
2022-12-27T19:12:34.049Z,99047.00
2022-12-27T19:15:36.003Z,99066.00
2022-12-27T19:18:20.735Z,99056.00
2022-12-27T19:21:00.186Z,99050.00
2022-12-27T19:23:43.137Z,99057.00
2022-12-27T19:26:17.980Z,99054.00
2022-12-27T19:29:17.145Z,99058.00
2022-12-27T19:32:03.717Z,99051.00
2022-12-27T19:34:50.509Z,99048.00
2022-12-27T19:37:28.109Z,99029.00
2022-12-27T19:40:03.968Z,99030.00
2022-12-27T19:42:39.852Z,99028.00
2022-12-27T19:45:16.490Z,99028.00
2022-12-27T19:47:52.409Z,99029.00
2022-12-27T19:50:29.028Z,99025.00
2022-12-27T19:53:03.961Z,99021.00
2022-12-27T19:55:38.858Z,99011.00
2022-12-27T19:58:23.967Z,99002.00
2022-12-27T20:00:58.990Z,99000.00
2022-12-27T20:03:33.892Z,98997.00
2022-12-27T20:06:14.312Z,99003.00
2022-12-27T20:08:53.725Z,99008.00
2022-12-27T20:11:29.323Z,98997.00
2022-12-27T20:14:04.242Z,98995.00
2022-12-27T20:16:39.411Z,98996.00
2022-12-27T20:19:16.530Z,98998.00
2022-12-27T20:21:51.493Z,98993.00
2022-12-27T20:24:26.325Z,98993.00
2022-12-27T20:27:01.406Z,99001.00
2022-12-27T20:29:37.431Z,98999.00
2022-12-27T20:32:12.381Z,98994.00
2022-12-27T20:34:47.660Z,98995.00
2022-12-27T20:37:24.887Z,98995.00
2022-12-27T20:40:00.270Z,98987.00
2022-12-27T20:42:35.311Z,98991.00
2022-12-27T20:45:11.177Z,98988.00
2022-12-27T20:47:46.122Z,98981.00
2022-12-27T20:50:20.993Z,98975.00
2022-12-27T20:52:55.881Z,98978.00
2022-12-27T20:55:33.266Z,98971.00
2022-12-27T20:58:08.091Z,98964.00
2022-12-27T21:00:43.061Z,98974.00
2022-12-27T21:03:19.256Z,98965.00
2022-12-27T21:05:54.203Z,98969.00
2022-12-27T21:08:29.049Z,98961.00
2022-12-27T21:11:13.951Z,98967.00
2022-12-27T21:13:49.022Z,98960.00
2022-12-27T21:16:29.447Z,98961.00
2022-12-27T21:19:06.073Z,98957.00
2022-12-27T21:21:41.837Z,98954.00
2022-12-27T21:24:16.719Z,98965.00
2022-12-27T21:26:56.268Z,98959.00
2022-12-27T21:29:31.484Z,98968.00
2022-12-27T21:32:06.436Z,98966.00
2022-12-27T21:34:41.460Z,98951.00
2022-12-27T21:37:16.380Z,98955.00
2022-12-27T21:39:51.269Z,98957.00
2022-12-27T21:42:26.127Z,98950.00
2022-12-27T21:45:01.076Z,98952.00
2022-12-27T21:47:36.112Z,98961.00
2022-12-27T21:50:11.092Z,98961.00
2022-12-27T21:52:45.968Z,98960.00
2022-12-27T21:55:20.860Z,98956.00
2022-12-27T21:57:55.696Z,98942.00
2022-12-27T22:00:30.620Z,98950.00
2022-12-27T22:03:06.625Z,98945.00
2022-12-27T22:05:41.652Z,98946.00
2022-12-27T22:08:16.484Z,98949.00
2022-12-27T22:10:56.642Z,98935.00
2022-12-27T22:13:32.881Z,98923.00
2022-12-27T22:16:13.414Z,98931.00
2022-12-27T22:18:48.761Z,98935.00
2022-12-27T22:21:28.315Z,98937.00
2022-12-27T22:24:04.009Z,98936.00
2022-12-27T22:26:38.956Z,98935.00
2022-12-27T22:29:13.784Z,98927.00
2022-12-27T22:31:48.659Z,98921.00
2022-12-27T22:34:23.536Z,98925.00
2022-12-27T22:36:58.397Z,98925.00
2022-12-27T22:39:33.232Z,98921.00
2022-12-27T22:42:08.110Z,98913.00
2022-12-27T22:44:43.766Z,98897.00
2022-12-27T22:47:27.707Z,98898.00
2022-12-27T22:50:03.234Z,98887.00
2022-12-27T22:52:38.086Z,98888.00
2022-12-27T22:55:14.331Z,98889.00
2022-12-27T22:57:49.210Z,98889.00
2022-12-27T23:00:24.168Z,98893.00
2022-12-27T23:02:59.031Z,98893.00
2022-12-27T23:05:33.901Z,98892.00
2022-12-27T23:08:08.816Z,98892.00
2022-12-27T23:10:43.685Z,98887.00
2022-12-27T23:13:22.188Z,98898.00
2022-12-27T23:16:02.085Z,98896.00
2022-12-27T23:18:39.471Z,98882.00
2022-12-27T23:21:20.674Z,98884.00
2022-12-27T23:23:59.325Z,98878.00
2022-12-27T23:26:34.422Z,98870.00
2022-12-27T23:29:12.808Z,98885.00
2022-12-27T23:31:54.077Z,98877.00
2022-12-27T23:34:30.361Z,98877.00
2022-12-27T23:37:05.260Z,98873.00
2022-12-27T23:39:40.112Z,98863.00
2022-12-27T23:42:14.936Z,98860.00
2022-12-27T23:44:50.515Z,98870.00
2022-12-27T23:47:25.414Z,98862.00
2022-12-27T23:50:00.291Z,98865.00
2022-12-27T23:52:35.250Z,98858.00
2022-12-27T23:55:10.370Z,98864.00
2022-12-27T23:57:45.258Z,98863.00
